Time;durP1;ratioP1;P1;durP2;ratioP2;P2;SDS_P1;SDS_P2;PMS_P1;PMS_P2;Temp;Humidity;BMP_temperature;BMP_pressure;BME280_temperature;BME280_humidity;BME280_pressure;Samples;Min_cycle;Max_cycle;Signal;HPM_P1;HPM_P2
2022/06/27 00:01:16;;;;;;;14.10;6.88;;;17.70;99.90;;;;;;4993419;28;20054;-80
2022/06/27 00:04:03;;;;;;;10.05;6.05;;;17.80;99.90;;;;;;4993473;28;20104;-81
2022/06/27 00:06:49;;;;;;;9.25;6.47;;;17.80;99.90;;;;;;5012194;28;20049;-81
2022/06/27 00:09:35;;;;;;;11.75;7.00;;;17.70;99.90;;;;;;4994601;28;20115;-81
2022/06/27 00:12:22;;;;;;;10.77;6.68;;;17.70;99.90;;;;;;5013037;28;20084;-80
2022/06/27 00:15:09;;;;;;;7.20;4.60;;;17.70;99.90;;;;;;5012866;28;20038;-80
2022/06/27 00:17:57;;;;;;;9.25;5.47;;;17.80;99.90;;;;;;5011494;28;20053;-80
2022/06/27 00:20:43;;;;;;;9.75;5.45;;;17.80;99.90;;;;;;4994354;28;20054;-80
2022/06/27 00:23:29;;;;;;;12.30;6.28;;;17.80;99.90;;;;;;4968539;28;20172;-80
2022/06/27 00:30:17;;;;;;;8.35;5.60;;;17.70;99.90;;;;;;5011239;28;20406;-80
2022/06/27 00:33:03;;;;;;;9.18;4.85;;;17.60;99.90;;;;;;4993316;28;20060;-80
2022/06/27 00:35:50;;;;;;;9.57;6.85;;;17.60;99.90;;;;;;4995710;28;20054;-80
2022/06/27 00:38:36;;;;;;;8.20;6.13;;;17.60;99.90;;;;;;5010541;28;20100;-81
2022/06/27 00:41:23;;;;;;;9.50;7.05;;;17.60;99.90;;;;;;5009543;28;20057;-80
2022/06/27 00:44:09;;;;;;;11.18;6.68;;;17.60;99.90;;;;;;4992512;28;20494;-80
2022/06/27 00:46:55;;;;;;;11.45;6.75;;;17.50;99.90;;;;;;5011460;28;20076;-80
2022/06/27 00:49:41;;;;;;;10.85;7.07;;;17.60;99.90;;;;;;5010038;28;20046;-80
2022/06/27 00:52:27;;;;;;;14.75;7.18;;;17.60;99.90;;;;;;4996013;28;20057;-80
2022/06/27 00:55:15;;;;;;;10.20;5.90;;;17.50;99.90;;;;;;5010243;28;20054;-80
2022/06/27 00:58:01;;;;;;;9.73;6.38;;;17.50;99.90;;;;;;5010960;28;20508;-80
2022/06/27 01:00:48;;;;;;;11.82;8.27;;;17.50;99.90;;;;;;4993497;28;20192;-80
2022/06/27 01:03:34;;;;;;;13.38;8.82;;;17.50;99.90;;;;;;5012768;28;20054;-80
2022/06/27 01:06:20;;;;;;;10.80;7.43;;;17.50;99.90;;;;;;4979365;28;20405;-80
2022/06/27 01:09:06;;;;;;;14.32;9.45;;;17.50;99.90;;;;;;5011705;28;20050;-80
2022/06/27 01:11:53;;;;;;;12.80;8.98;;;17.50;99.90;;;;;;5010121;28;20505;-80
2022/06/27 01:14:39;;;;;;;11.90;8.93;;;17.50;99.90;;;;;;4979401;28;20055;-80
2022/06/27 01:17:25;;;;;;;13.70;8.70;;;17.50;99.90;;;;;;4992772;28;20402;-80
2022/06/27 01:20:12;;;;;;;11.40;7.57;;;17.50;99.90;;;;;;4993201;28;20096;-80
2022/06/27 01:22:58;;;;;;;11.02;8.32;;;17.40;99.90;;;;;;5010982;28;20052;-80
2022/06/27 01:25:44;;;;;;;12.35;8.45;;;17.40;99.90;;;;;;4992557;28;20112;-80
2022/06/27 01:28:30;;;;;;;11.65;8.32;;;17.40;99.90;;;;;;5009538;28;20065;-80
2022/06/27 01:31:17;;;;;;;16.90;9.77;;;17.40;99.90;;;;;;4992684;28;20478;-80
2022/06/27 01:34:04;;;;;;;11.98;8.82;;;17.40;99.90;;;;;;5009490;28;20164;-81
2022/06/27 01:36:50;;;;;;;13.23;8.55;;;17.40;99.90;;;;;;4995123;28;20054;-81
2022/06/27 01:39:37;;;;;;;12.40;9.23;;;17.40;99.90;;;;;;4984600;28;20054;-81
2022/06/27 01:42:24;;;;;;;13.13;10.13;;;17.40;99.90;;;;;;4997057;28;20042;-81
2022/06/27 01:45:10;;;;;;;14.13;9.77;;;17.50;99.90;;;;;;5014766;28;20093;-80
2022/06/27 01:47:57;;;;;;;12.52;9.13;;;17.40;99.90;;;;;;4996312;28;20387;-80
2022/06/27 01:50:49;;;;;;;14.43;9.38;;;17.40;99.90;;;;;;4995460;28;20056;-81
2022/06/27 01:53:36;;;;;;;16.67;9.95;;;17.40;99.90;;;;;;5013648;28;20119;-81
2022/06/27 01:56:22;;;;;;;12.30;8.68;;;17.40;99.90;;;;;;5014017;28;20041;-80
2022/06/27 01:59:10;;;;;;;13.18;9.35;;;17.50;99.90;;;;;;5012496;28;20061;-81
2022/06/27 02:01:58;;;;;;;16.17;10.27;;;17.50;99.90;;;;;;4981953;28;20046;-79
2022/06/27 02:04:46;;;;;;;13.00;8.70;;;17.50;99.90;;;;;;5012038;28;20507;-80
2022/06/27 02:07:32;;;;;;;12.32;9.07;;;17.50;99.90;;;;;;5013353;28;20049;-80
2022/06/27 02:10:18;;;;;;;12.88;8.57;;;17.60;99.90;;;;;;4995146;28;20092;-80
2022/06/27 02:13:04;;;;;;;11.43;8.40;;;17.50;99.90;;;;;;4998824;28;20061;-79
2022/06/27 02:16:12;;;;;;;13.75;8.48;;;17.60;99.90;;;;;;5011396;28;20050;-80
2022/06/27 02:18:58;;;;;;;12.38;8.70;;;17.60;99.90;;;;;;4995445;28;20103;-80
2022/06/27 02:21:46;;;;;;;14.07;8.88;;;17.50;99.90;;;;;;5013213;28;20046;-79
2022/06/27 02:24:32;;;;;;;14.32;9.00;;;17.50;99.90;;;;;;4998048;28;20046;-80
2022/06/27 02:27:19;;;;;;;12.85;8.73;;;17.50;99.90;;;;;;4995429;28;20061;-82
2022/06/27 02:30:06;;;;;;;12.50;9.70;;;17.50;99.90;;;;;;4994975;28;20083;-81
2022/06/27 02:32:52;;;;;;;11.30;7.95;;;17.50;99.90;;;;;;5014388;28;20038;-82
2022/06/27 02:35:44;;;;;;;13.48;7.95;;;17.50;99.90;;;;;;5013556;28;20116;-80
2022/06/27 02:38:31;;;;;;;15.60;9.07;;;17.50;99.90;;;;;;4995948;28;20536;-80
2022/06/27 02:41:20;;;;;;;14.27;9.20;;;17.50;99.90;;;;;;4982097;28;20049;-80
2022/06/27 02:44:09;;;;;;;13.93;8.00;;;17.50;99.90;;;;;;4995015;28;20445;-80
2022/06/27 02:46:56;;;;;;;13.52;9.48;;;17.50;99.90;;;;;;4994759;28;20201;-81
2022/06/27 02:49:42;;;;;;;13.80;8.88;;;17.50;99.90;;;;;;4994856;28;20490;-80
2022/06/27 02:52:33;;;;;;;12.80;8.70;;;17.50;99.90;;;;;;4994426;28;20161;-80
2022/06/27 02:55:26;;;;;;;12.38;8.32;;;17.40;99.90;;;;;;5010563;28;20199;-81
2022/06/27 02:58:44;;;;;;;10.43;7.78;;;17.40;99.90;;;;;;5011904;28;20464;-80
2022/06/27 03:01:31;;;;;;;14.27;8.95;;;17.40;99.90;;;;;;4979364;28;20058;-80
2022/06/27 03:04:17;;;;;;;12.80;8.07;;;17.40;99.90;;;;;;4997163;28;20060;-80
2022/06/27 03:07:04;;;;;;;11.07;7.22;;;17.40;99.90;;;;;;4994546;28;20548;-79
2022/06/27 03:09:50;;;;;;;11.65;7.47;;;17.40;99.90;;;;;;4994670;28;20053;-79
2022/06/27 03:12:36;;;;;;;13.00;8.20;;;17.40;99.90;;;;;;5011894;28;20046;-80
2022/06/27 03:15:22;;;;;;;11.52;7.47;;;17.40;99.90;;;;;;4997552;28;20063;-79
2022/06/27 03:18:13;;;;;;;12.77;8.00;;;17.40;99.90;;;;;;5011910;28;20112;-80
2022/06/27 03:20:59;;;;;;;17.27;8.40;;;17.30;99.90;;;;;;5010792;28;20050;-81
2022/06/27 03:23:49;;;;;;;10.93;8.10;;;17.30;99.90;;;;;;5013132;28;20061;-80
2022/06/27 03:26:35;;;;;;;15.40;7.85;;;17.30;99.90;;;;;;5011207;28;20045;-80
2022/06/27 03:29:21;;;;;;;12.02;7.75;;;17.30;99.90;;;;;;4993257;28;20088;-79
2022/06/27 03:32:07;;;;;;;12.52;7.55;;;17.30;99.90;;;;;;4995050;28;20050;-79
2022/06/27 03:34:53;;;;;;;9.70;7.25;;;17.20;99.90;;;;;;5011063;28;20053;-80
2022/06/27 03:37:39;;;;;;;8.65;6.78;;;17.20;99.90;;;;;;4994109;28;20053;-80
2022/06/27 03:40:25;;;;;;;13.35;9.02;;;17.20;99.90;;;;;;5011529;28;20179;-81
2022/06/27 03:43:11;;;;;;;18.30;11.40;;;17.20;99.90;;;;;;5011722;28;20104;-80
2022/06/27 03:45:58;;;;;;;14.90;9.75;;;17.20;99.90;;;;;;4998266;28;20081;-80
2022/06/27 03:51:48;;;;;;;14.90;10.23;;;17.20;99.90;;;;;;5011438;28;20068;-81
2022/06/27 03:54:35;;;;;;;15.80;10.23;;;17.20;99.90;;;;;;5010498;28;20057;-80
2022/06/27 03:57:21;;;;;;;13.27;9.63;;;17.20;99.90;;;;;;5010799;28;20045;-80
2022/06/27 04:00:10;;;;;;;11.48;8.18;;;17.20;99.90;;;;;;4993083;28;20136;-81
2022/06/27 04:02:56;;;;;;;13.63;9.93;;;17.20;99.90;;;;;;5009222;28;20413;-80
2022/06/27 04:05:45;;;;;;;14.27;9.32;;;17.20;99.90;;;;;;4980399;28;20061;-81
2022/06/27 04:08:31;;;;;;;14.40;8.88;;;17.20;99.90;;;;;;5011316;28;20137;-80
2022/06/27 04:11:17;;;;;;;12.45;8.43;;;17.20;99.90;;;;;;4995199;28;20160;-81
2022/06/27 04:14:03;;;;;;;13.23;10.30;;;17.20;99.90;;;;;;5011106;28;20061;-80
2022/06/27 04:16:51;;;;;;;12.80;9.75;;;17.20;99.90;;;;;;5011340;28;20057;-80
2022/06/27 04:19:38;;;;;;;14.68;10.57;;;17.20;99.90;;;;;;4993802;28;20081;-81
2022/06/27 04:22:24;;;;;;;14.55;9.55;;;17.20;99.90;;;;;;5011090;28;20108;-81
2022/06/27 04:25:10;;;;;;;16.65;9.75;;;17.20;99.90;;;;;;4979475;28;20053;-80
2022/06/27 04:27:56;;;;;;;14.38;9.15;;;17.30;99.90;;;;;;5009620;28;20144;-81
2022/06/27 04:30:43;;;;;;;14.65;9.43;;;17.30;99.90;;;;;;5010989;28;20045;-80
2022/06/27 04:33:29;;;;;;;13.75;10.07;;;17.30;99.90;;;;;;4993880;28;20097;-81
2022/06/27 04:36:15;;;;;;;12.98;8.98;;;17.40;99.90;;;;;;4993339;28;20549;-81
2022/06/27 04:39:01;;;;;;;13.50;10.95;;;17.40;99.90;;;;;;4996048;28;20053;-80
2022/06/27 04:41:50;;;;;;;15.77;9.80;;;17.40;99.90;;;;;;5011223;28;20050;-82
2022/06/27 04:44:40;;;;;;;13.27;11.18;;;17.50;99.90;;;;;;4980346;28;20104;-81
2022/06/27 04:47:26;;;;;;;17.40;10.50;;;17.50;99.90;;;;;;4992773;28;20058;-81
2022/06/27 04:50:15;;;;;;;14.77;11.45;;;17.50;99.90;;;;;;4993324;28;20087;-81
2022/06/27 04:53:01;;;;;;;14.35;11.05;;;17.50;99.90;;;;;;5009621;28;20053;-81
2022/06/27 04:55:49;;;;;;;14.23;10.27;;;17.50;99.90;;;;;;5011424;28;20046;-81
2022/06/27 04:58:35;;;;;;;16.63;11.07;;;17.50;99.90;;;;;;5010999;28;20058;-80
2022/06/27 05:01:21;;;;;;;18.65;11.20;;;17.60;99.90;;;;;;5010744;28;20413;-80
2022/06/27 05:04:08;;;;;;;13.63;10.70;;;17.60;99.90;;;;;;5010534;28;20046;-81
2022/06/27 05:06:55;;;;;;;16.85;10.45;;;17.60;99.90;;;;;;5010662;28;20556;-78
2022/06/27 05:09:41;;;;;;;17.38;11.07;;;17.60;99.90;;;;;;4993345;28;20054;-81
2022/06/27 05:12:28;;;;;;;14.32;11.63;;;17.50;99.90;;;;;;4996686;28;20100;-81
2022/06/27 05:15:14;;;;;;;16.63;12.55;;;17.60;99.90;;;;;;5014775;28;20493;-80
2022/06/27 05:18:00;;;;;;;18.30;13.63;;;17.60;99.90;;;;;;5012567;28;20105;-80
2022/06/27 05:20:47;;;;;;;21.05;14.95;;;17.60;99.90;;;;;;5013218;28;20049;-81
2022/06/27 05:23:33;;;;;;;17.35;11.65;;;17.60;99.90;;;;;;5013696;28;20132;-80
2022/06/27 05:26:19;;;;;;;18.67;13.70;;;17.60;99.90;;;;;;4999410;28;20099;-81
2022/06/27 05:29:06;;;;;;;21.52;15.00;;;17.60;99.90;;;;;;4995789;28;20053;-81
2022/06/27 05:31:52;;;;;;;21.63;13.55;;;17.70;99.90;;;;;;4983139;28;20057;-81
2022/06/27 05:34:38;;;;;;;18.55;14.85;;;17.70;99.90;;;;;;5014683;28;20127;-81
2022/06/27 05:37:25;;;;;;;17.73;13.57;;;17.80;99.90;;;;;;4983672;28;20133;-81
2022/06/27 05:40:11;;;;;;;18.15;14.73;;;17.90;99.90;;;;;;4995957;28;20050;-81
2022/06/27 05:42:57;;;;;;;19.85;14.18;;;18.00;99.90;;;;;;5012855;28;20831;-81
2022/06/27 05:45:43;;;;;;;20.52;14.68;;;18.10;99.90;;;;;;4983968;28;20046;-81
2022/06/27 05:48:29;;;;;;;19.60;13.88;;;18.10;99.90;;;;;;5014403;28;20065;-82
2022/06/27 05:51:15;;;;;;;17.92;14.80;;;18.10;99.90;;;;;;4996786;28;20674;-81
2022/06/27 05:54:02;;;;;;;17.25;13.32;;;18.20;99.90;;;;;;5014066;28;20041;-80
2022/06/27 05:56:48;;;;;;;16.60;11.85;;;18.20;99.90;;;;;;4996025;28;20054;-81
2022/06/27 05:59:35;;;;;;;18.13;12.63;;;18.20;99.90;;;;;;4995997;28;20057;-80
2022/06/27 06:02:23;;;;;;;16.30;11.63;;;18.30;99.90;;;;;;5013430;28;20077;-81
2022/06/27 06:05:12;;;;;;;14.35;11.13;;;18.20;99.90;;;;;;5012557;28;20081;-81
2022/06/27 06:08:02;;;;;;;13.82;10.13;;;18.20;99.90;;;;;;5013362;28;20500;-82
2022/06/27 06:10:48;;;;;;;12.85;10.23;;;18.30;99.90;;;;;;5013884;28;20057;-79
2022/06/27 06:13:35;;;;;;;15.70;10.07;;;18.50;99.90;;;;;;4999478;28;20053;-80
2022/06/27 06:16:21;;;;;;;12.73;8.77;;;18.50;99.90;;;;;;4996239;28;20394;-80
2022/06/27 06:19:07;;;;;;;11.95;7.55;;;18.60;99.90;;;;;;5014244;28;20449;-80
2022/06/27 06:21:53;;;;;;;7.53;6.03;;;18.60;99.90;;;;;;4993785;28;20054;-80
2022/06/27 06:24:39;;;;;;;9.32;6.72;;;18.60;99.90;;;;;;5011487;28;20140;-80
2022/06/27 06:27:25;;;;;;;8.70;5.85;;;18.50;99.90;;;;;;5013233;28;20410;-80
2022/06/27 06:30:15;;;;;;;7.82;5.80;;;18.50;99.90;;;;;;4981652;28;20236;-80
2022/06/27 06:33:05;;;;;;;8.45;5.93;;;18.60;99.90;;;;;;4994935;28;20050;-80
2022/06/27 06:35:51;;;;;;;8.00;5.88;;;18.60;99.90;;;;;;5012382;28;20054;-80
2022/06/27 06:38:38;;;;;;;7.38;5.50;;;18.60;99.90;;;;;;5012858;28;20081;-80
2022/06/27 06:41:24;;;;;;;6.70;4.90;;;18.60;99.90;;;;;;4994819;28;20444;-80
2022/06/27 06:44:10;;;;;;;6.95;5.43;;;18.60;99.90;;;;;;4995311;28;20045;-80
2022/06/27 06:46:57;;;;;;;7.90;5.43;;;18.60;99.90;;;;;;4982538;28;20049;-80
2022/06/27 06:49:44;;;;;;;6.65;4.72;;;18.60;99.90;;;;;;5011645;28;20104;-80
2022/06/27 06:52:30;;;;;;;7.35;4.97;;;18.60;99.90;;;;;;5012935;28;20121;-80
2022/06/27 06:55:19;;;;;;;8.13;5.10;;;18.60;99.90;;;;;;4994697;28;20586;-81
2022/06/27 06:58:05;;;;;;;8.48;4.63;;;18.50;99.90;;;;;;5011449;28;20493;-81
2022/06/27 07:00:52;;;;;;;6.05;4.13;;;18.60;99.90;;;;;;5012126;28;20445;-79
2022/06/27 07:03:38;;;;;;;7.18;4.75;;;18.60;99.90;;;;;;5011554;28;20393;-81
2022/06/27 07:06:26;;;;;;;5.60;3.95;;;18.60;99.90;;;;;;4993666;28;20065;-81
2022/06/27 07:09:13;;;;;;;6.10;4.40;;;18.60;99.90;;;;;;4994930;28;20046;-81
2022/06/27 07:12:00;;;;;;;7.80;4.63;;;18.60;99.90;;;;;;5011989;28;20111;-80
2022/06/27 07:14:47;;;;;;;6.00;4.47;;;18.60;99.90;;;;;;4994262;28;20057;-81
2022/06/27 07:17:48;;;;;;;7.20;5.13;;;18.60;99.90;;;;;;5012358;28;20169;-80
2022/06/27 07:20:34;;;;;;;6.53;4.78;;;18.60;99.90;;;;;;5012070;28;20041;-81
2022/06/27 07:23:21;;;;;;;6.00;4.07;;;18.60;99.90;;;;;;5011847;28;20054;-80
2022/06/27 07:26:09;;;;;;;8.32;4.78;;;18.70;99.90;;;;;;5012764;28;20129;-80
2022/06/27 07:28:55;;;;;;;6.97;4.72;;;18.70;99.90;;;;;;5013220;28;20497;-80
2022/06/27 07:31:41;;;;;;;6.57;5.07;;;18.80;99.90;;;;;;5012685;28;20125;-81
2022/06/27 07:34:28;;;;;;;8.07;5.45;;;18.70;99.90;;;;;;5011164;28;20489;-79
2022/06/27 07:37:14;;;;;;;7.90;5.10;;;18.80;99.90;;;;;;5012242;28;20409;-79
2022/06/27 07:40:00;;;;;;;10.57;6.13;;;18.80;99.90;;;;;;5011318;28;20128;-80
2022/06/27 07:42:49;;;;;;;9.10;6.68;;;18.70;99.90;;;;;;5011202;28;20057;-80
2022/06/27 07:45:38;;;;;;;7.93;6.10;;;18.70;99.90;;;;;;5011304;28;20057;-81
2022/06/27 07:48:25;;;;;;;10.65;6.97;;;18.70;99.90;;;;;;4994024;28;20058;-80
2022/06/27 07:51:14;;;;;;;9.73;6.75;;;18.60;99.90;;;;;;5010854;28;20053;-79
2022/06/27 07:54:01;;;;;;;12.20;7.72;;;18.70;99.90;;;;;;5011597;28;20049;-80
2022/06/27 07:56:47;;;;;;;13.70;8.75;;;18.70;99.90;;;;;;5010964;28;20442;-80
2022/06/27 07:59:34;;;;;;;12.05;8.25;;;18.70;99.90;;;;;;4970880;28;20193;-80
2022/06/27 08:02:20;;;;;;;12.30;8.90;;;18.70;99.90;;;;;;4956427;28;20142;-80
2022/06/27 08:05:07;;;;;;;12.05;8.90;;;18.70;99.90;;;;;;4971544;28;20109;-80
2022/06/27 08:07:56;;;;;;;15.32;9.68;;;18.80;99.90;;;;;;4983810;28;20586;-80
2022/06/27 08:10:43;;;;;;;12.60;8.88;;;18.80;99.90;;;;;;4970727;28;20414;-80
2022/06/27 08:13:31;;;;;;;13.93;10.15;;;18.80;99.90;;;;;;4987013;28;20051;-80
2022/06/27 08:16:18;;;;;;;14.35;9.05;;;18.90;99.90;;;;;;4969664;28;20058;-79
2022/06/27 08:19:05;;;;;;;17.45;11.23;;;19.00;99.90;;;;;;4957494;28;20163;-79
2022/06/27 08:21:51;;;;;;;12.82;9.55;;;19.10;99.90;;;;;;4970942;28;20061;-80
2022/06/27 08:24:38;;;;;;;12.88;9.68;;;19.10;99.90;;;;;;4986166;28;20399;-80
2022/06/27 08:27:24;;;;;;;12.43;9.75;;;19.20;99.90;;;;;;4970843;28;20085;-79
2022/06/27 08:30:14;;;;;;;12.70;8.98;;;19.40;99.90;;;;;;4969598;28;20133;-81
2022/06/27 08:33:00;;;;;;;13.48;9.98;;;19.50;99.90;;;;;;4971276;28;20070;-80
2022/06/27 08:35:50;;;;;;;16.02;11.18;;;19.60;99.90;;;;;;4968491;28;20121;-79
2022/06/27 08:38:42;;;;;;;12.50;9.43;;;19.60;99.90;;;;;;4970799;28;20062;-80
2022/06/27 08:41:28;;;;;;;14.63;11.05;;;19.60;99.90;;;;;;4970210;28;20057;-80
2022/06/27 08:44:16;;;;;;;16.13;11.15;;;19.60;99.90;;;;;;4970335;28;20073;-80
2022/06/27 08:47:03;;;;;;;15.32;11.07;;;19.60;99.90;;;;;;4973049;28;20046;-80
2022/06/27 08:49:52;;;;;;;15.85;10.93;;;19.50;99.90;;;;;;4990531;28;20503;-80
2022/06/27 08:52:39;;;;;;;13.30;9.63;;;19.40;99.90;;;;;;4960042;28;20095;-81
2022/06/27 08:55:26;;;;;;;12.95;9.82;;;19.50;99.90;;;;;;4973680;28;20215;-80
2022/06/27 08:58:13;;;;;;;11.20;9.10;;;19.40;99.90;;;;;;4983523;28;20138;-80
2022/06/27 09:01:00;;;;;;;12.32;9.43;;;19.30;99.90;;;;;;4979302;28;20479;-81
2022/06/27 09:04:13;;;;;;;16.23;9.98;;;19.40;99.90;;;;;;4976970;28;20733;-80
2022/06/27 09:06:59;;;;;;;12.18;9.05;;;19.40;99.90;;;;;;4979615;28;20058;-80
2022/06/27 09:09:45;;;;;;;13.63;9.23;;;19.50;99.90;;;;;;4968626;28;20062;-80
2022/06/27 09:12:31;;;;;;;12.23;9.05;;;19.60;99.90;;;;;;4992458;28;20053;-81
2022/06/27 09:15:18;;;;;;;13.10;8.95;;;19.80;99.90;;;;;;4995472;28;20086;-80
2022/06/27 09:18:06;;;;;;;11.73;9.25;;;19.90;99.90;;;;;;4978079;28;20457;-80
2022/06/27 09:21:00;;;;;;;12.52;8.88;;;20.00;99.90;;;;;;4995021;28;20117;-80
2022/06/27 09:23:58;;;;;;;16.08;9.82;;;20.20;99.90;;;;;;4963895;28;20057;-81
2022/06/27 09:26:44;;;;;;;14.98;8.40;;;20.20;99.90;;;;;;4995255;28;20054;-80
2022/06/27 09:29:31;;;;;;;11.55;9.18;;;20.40;99.90;;;;;;4976990;28;20514;-80
2022/06/27 09:32:24;;;;;;;12.52;9.13;;;20.50;99.90;;;;;;4979777;28;20051;-81
2022/06/27 09:35:32;;;;;;;11.45;8.50;;;20.70;99.90;;;;;;4976778;28;20046;-81
2022/06/27 09:38:19;;;;;;;12.35;8.50;;;20.80;99.90;;;;;;4995176;28;20050;-81
2022/06/27 09:41:08;;;;;;;12.15;9.15;;;20.80;99.90;;;;;;4994566;28;20050;-80
2022/06/27 09:44:00;;;;;;;14.00;9.70;;;20.80;99.90;;;;;;4993530;28;20050;-80
2022/06/27 09:46:54;;;;;;;12.18;9.40;;;20.80;99.90;;;;;;4978029;28;20054;-81
2022/06/27 09:49:43;;;;;;;14.45;9.57;;;20.70;99.90;;;;;;4977682;28;20102;-81
2022/06/27 09:52:29;;;;;;;12.63;8.00;;;20.70;99.90;;;;;;4994609;28;20454;-81
2022/06/27 09:55:18;;;;;;;11.13;8.10;;;20.80;99.90;;;;;;4980162;28;20053;-80
2022/06/27 09:58:06;;;;;;;12.82;8.15;;;20.80;99.90;;;;;;4970665;28;20112;-81
2022/06/27 10:00:53;;;;;;;10.27;8.20;;;20.80;99.90;;;;;;5014040;28;20405;-81
2022/06/27 10:03:40;;;;;;;14.30;8.60;;;20.80;99.90;;;;;;5013466;28;20129;-80
2022/06/27 10:06:27;;;;;;;11.63;7.85;;;21.00;99.90;;;;;;5013120;28;20054;-80
2022/06/27 10:09:15;;;;;;;7.45;6.00;;;21.00;99.90;;;;;;4997473;28;20054;-81
2022/06/27 10:12:34;;;;;;;7.13;5.32;;;21.10;99.90;;;;;;5011701;28;20108;-80
2022/06/27 10:15:22;;;;;;;12.30;5.32;;;21.20;99.90;;;;;;4996125;28;20053;-80
2022/06/27 10:18:08;;;;;;;7.63;4.90;;;21.20;99.90;;;;;;5012946;28;20065;-81
2022/06/27 10:20:54;;;;;;;9.48;5.32;;;21.30;99.90;;;;;;5012496;28;20494;-81
2022/06/27 10:23:47;;;;;;;7.82;5.45;;;21.20;99.90;;;;;;5011861;28;20046;-81
2022/06/27 10:26:41;;;;;;;10.75;6.32;;;21.20;99.90;;;;;;5013538;28;20050;-81
2022/06/27 10:29:27;;;;;;;8.05;5.68;;;21.30;99.90;;;;;;4995753;28;20051;-81
2022/06/27 10:32:39;;;;;;;10.45;6.35;;;21.40;99.90;;;;;;4996200;28;20081;-81
2022/06/27 10:35:26;;;;;;;8.80;5.00;;;21.30;99.90;;;;;;5013219;28;20050;-80
2022/06/27 10:38:32;;;;;;;7.85;5.43;;;21.30;99.90;;;;;;5012949;28;20060;-81
2022/06/27 10:41:18;;;;;;;8.88;5.82;;;21.40;99.90;;;;;;4993568;28;20054;-81
2022/06/27 10:44:06;;;;;;;8.90;6.60;;;21.30;99.90;;;;;;5012747;28;20046;-80
2022/06/27 10:46:53;;;;;;;9.05;6.57;;;21.20;99.90;;;;;;5012114;28;20050;-80
2022/06/27 10:49:39;;;;;;;8.65;6.28;;;21.20;99.90;;;;;;4994756;28;20101;-81
2022/06/27 10:52:29;;;;;;;10.93;6.68;;;21.30;99.90;;;;;;4995338;28;20054;-81
2022/06/27 10:55:32;;;;;;;7.93;5.85;;;21.10;99.90;;;;;;4993599;28;20057;-80
2022/06/27 10:58:23;;;;;;;9.82;6.93;;;21.00;99.90;;;;;;5011835;28;20441;-80
2022/06/27 11:01:13;;;;;;;9.55;6.05;;;20.90;99.90;;;;;;5011666;28;20489;-80
2022/06/27 11:04:00;;;;;;;7.63;5.80;;;20.80;99.90;;;;;;4994598;28;20058;-80
2022/06/27 11:06:56;;;;;;;7.63;5.97;;;20.90;99.90;;;;;;5011673;28;20061;-80
2022/06/27 11:09:47;;;;;;;8.00;6.43;;;21.00;99.90;;;;;;4998316;28;20053;-81
2022/06/27 11:12:35;;;;;;;9.30;6.07;;;21.00;99.90;;;;;;4994089;28;20054;-80
2022/06/27 11:15:23;;;;;;;13.07;7.65;;;21.00;99.90;;;;;;5011213;28;20089;-80
2022/06/27 11:18:09;;;;;;;11.05;7.20;;;21.00;99.90;;;;;;5012920;28;20050;-81
2022/06/27 11:20:57;;;;;;;11.05;7.07;;;21.20;99.90;;;;;;4995487;28;20054;-80
2022/06/27 11:24:02;;;;;;;10.68;8.45;;;21.30;99.90;;;;;;5012215;28;20050;-81
2022/06/27 11:26:49;;;;;;;;;;;21.30;99.90;;;;;;4994532;28;20498;-80
2022/06/27 11:32:40;;;;;;;13.57;8.52;;;21.20;99.90;;;;;;5011585;28;20095;-81
2022/06/27 11:35:27;;;;;;;12.00;9.00;;;21.30;99.90;;;;;;5011400;28;20050;-80
2022/06/27 11:38:21;;;;;;;9.63;7.70;;;21.40;99.90;;;;;;4980977;28;20562;-80
2022/06/27 11:41:09;;;;;;;11.43;8.10;;;21.40;99.90;;;;;;4978983;28;20128;-80
2022/06/27 11:43:56;;;;;;;10.63;6.82;;;21.40;99.90;;;;;;4993603;28;20524;-81
2022/06/27 11:46:46;;;;;;;10.80;7.45;;;21.40;99.90;;;;;;4992603;28;20046;-80
2022/06/27 11:49:37;;;;;;;11.60;8.15;;;21.50;99.90;;;;;;4992744;28;20085;-80
2022/06/27 11:52:37;;;;;;;10.80;7.43;;;21.60;99.90;;;;;;5011564;28;20132;-80
2022/06/27 11:55:25;;;;;;;10.80;8.13;;;21.90;99.90;;;;;;5012662;28;20054;-80
2022/06/27 11:58:11;;;;;;;11.98;8.05;;;22.00;99.90;;;;;;4993013;28;20789;-80
2022/06/27 12:01:09;;;;;;;9.93;7.82;;;22.10;99.90;;;;;;4993651;28;20050;-80
2022/06/27 12:04:07;;;;;;;10.75;7.07;;;22.20;99.90;;;;;;4993791;28;20129;-81
2022/06/27 12:07:06;;;;;;;11.75;8.00;;;22.30;99.90;;;;;;4993029;28;20057;-80
2022/06/27 12:09:53;;;;;;;13.65;8.48;;;22.50;99.90;;;;;;4992728;28;20046;-80
2022/06/27 12:12:44;;;;;;;9.18;6.63;;;22.70;99.90;;;;;;5009122;28;20422;-80
2022/06/27 12:15:30;;;;;;;11.23;7.72;;;22.70;99.90;;;;;;5010562;28;20053;-81
2022/06/27 12:18:18;;;;;;;8.65;6.75;;;22.70;99.90;;;;;;4996426;28;20133;-81
2022/06/27 12:21:04;;;;;;;7.70;6.65;;;22.60;99.90;;;;;;5013820;28;20058;-81
2022/06/27 12:23:51;;;;;;;11.05;7.10;;;22.60;99.90;;;;;;4992796;28;20054;-81
2022/06/27 12:26:37;;;;;;;10.90;5.90;;;22.50;99.90;;;;;;4980629;28;20092;-80
2022/06/27 12:29:24;;;;;;;10.80;6.97;;;22.50;99.90;;;;;;5010448;28;20475;-80
2022/06/27 12:32:10;;;;;;;8.13;5.18;;;22.40;99.90;;;;;;4993170;28;20085;-80
2022/06/27 12:34:56;;;;;;;8.48;4.22;;;22.70;99.90;;;;;;4996184;28;20111;-80
2022/06/27 12:37:42;;;;;;;7.22;4.00;;;22.80;99.90;;;;;;5009930;28;20050;-81
2022/06/27 12:40:29;;;;;;;7.72;4.38;;;22.80;99.90;;;;;;4997203;28;20593;-81
2022/06/27 12:43:15;;;;;;;6.88;4.22;;;23.00;99.90;;;;;;5010718;28;20054;-80
2022/06/27 12:46:02;;;;;;;6.32;4.57;;;22.90;99.90;;;;;;5010578;28;20046;-80
2022/06/27 12:48:48;;;;;;;7.90;5.53;;;23.00;99.90;;;;;;5011148;28;20058;-79
2022/06/27 12:51:34;;;;;;;9.55;6.80;;;23.00;99.90;;;;;;4994208;28;20062;-80
2022/06/27 12:54:21;;;;;;;9.35;6.65;;;23.00;99.90;;;;;;5010157;28;20073;-79
2022/06/27 12:57:07;;;;;;;8.95;6.03;;;23.10;99.90;;;;;;4996415;28;20108;-80
2022/06/27 12:59:53;;;;;;;8.57;5.97;;;23.20;99.90;;;;;;4972992;28;20101;-80
2022/06/27 13:02:39;;;;;;;10.13;6.68;;;23.30;99.90;;;;;;4970370;28;20152;-80
2022/06/27 13:05:25;;;;;;;8.27;5.90;;;23.40;99.90;;;;;;4970865;28;20058;-80
2022/06/27 13:08:12;;;;;;;8.35;5.00;;;23.40;99.90;;;;;;4954000;28;20050;-80
2022/06/27 13:10:58;;;;;;;8.27;5.40;;;23.40;99.90;;;;;;4970137;28;20137;-80
2022/06/27 13:13:44;;;;;;;7.55;5.40;;;23.40;99.90;;;;;;4970048;28;20046;-79
2022/06/27 13:16:30;;;;;;;7.97;4.78;;;23.20;99.90;;;;;;4970287;28;20054;-80
2022/06/27 13:19:19;;;;;;;6.22;4.10;;;23.10;99.90;;;;;;4969991;28;20055;-79
2022/06/27 13:22:05;;;;;;;7.13;4.65;;;23.10;99.90;;;;;;4970259;28;20073;-79
2022/06/27 13:25:00;;;;;;;8.07;4.75;;;23.00;99.90;;;;;;4969398;28;20047;-79
2022/06/27 13:27:47;;;;;;;5.72;3.42;;;22.90;99.90;;;;;;4969982;28;20066;-80
2022/06/27 13:30:34;;;;;;;5.60;3.38;;;22.90;99.90;;;;;;4970600;28;20080;-80
2022/06/27 13:33:20;;;;;;;6.85;3.10;;;22.90;99.90;;;;;;4973385;28;20153;-80
2022/06/27 13:36:07;;;;;;;5.68;3.60;;;22.90;99.90;;;;;;4974661;28;20096;-80
2022/06/27 13:38:53;;;;;;;6.63;4.05;;;22.80;99.90;;;;;;4976294;28;20054;-80
2022/06/27 13:41:41;;;;;;;7.15;3.55;;;22.90;99.90;;;;;;4973917;28;20061;-80
2022/06/27 13:44:27;;;;;;;5.43;3.75;;;22.90;99.90;;;;;;4973008;28;20089;-80
2022/06/27 13:47:13;;;;;;;8.32;3.45;;;22.80;99.90;;;;;;4972835;28;20468;-80
2022/06/27 13:50:01;;;;;;;5.88;3.80;;;22.60;99.90;;;;;;4973362;28;20396;-79
2022/06/27 13:52:47;;;;;;;6.05;3.53;;;22.40;99.90;;;;;;4974476;28;20055;-80
2022/06/27 13:55:35;;;;;;;6.45;3.40;;;22.30;99.90;;;;;;4989032;28;20134;-80
2022/06/27 13:58:21;;;;;;;6.53;3.40;;;22.30;99.90;;;;;;4993175;28;20046;-79
2022/06/27 14:01:08;;;;;;;6.82;3.60;;;22.30;99.90;;;;;;5013376;28;20054;-79
2022/06/27 14:03:54;;;;;;;5.13;2.92;;;22.20;99.90;;;;;;5013967;28;20093;-80
2022/06/27 14:09:46;;;;;;;6.07;3.50;;;22.20;99.90;;;;;;5011681;28;20105;-80
2022/06/27 14:12:32;;;;;;;5.90;3.88;;;22.30;99.90;;;;;;4997866;28;20050;-80
2022/06/27 14:15:19;;;;;;;8.38;4.70;;;22.40;99.90;;;;;;4999673;28;20057;-80
2022/06/27 14:18:05;;;;;;;5.47;4.20;;;22.50;99.90;;;;;;5016162;28;20477;-79
2022/06/27 14:20:51;;;;;;;6.78;4.15;;;22.60;99.90;;;;;;5013640;28;20108;-80
2022/06/27 14:23:37;;;;;;;8.98;6.05;;;22.60;99.90;;;;;;4994756;28;20046;-80
2022/06/27 14:26:24;;;;;;;7.95;4.18;;;22.70;99.90;;;;;;5012928;28;20058;-79
2022/06/27 14:29:10;;;;;;;6.32;3.97;;;22.60;99.90;;;;;;4996747;28;20069;-79
2022/06/27 14:31:56;;;;;;;8.98;4.75;;;22.40;99.90;;;;;;4995690;28;20502;-80
2022/06/27 14:34:42;;;;;;;6.95;4.22;;;22.20;99.90;;;;;;4996082;28;20085;-81
2022/06/27 14:37:29;;;;;;;7.18;4.18;;;22.00;99.90;;;;;;4995670;28;20654;-81